createdAt,value
2022-12-14T00:01:48.889Z,2.11
2022-12-14T00:04:17.108Z,2.30
2022-12-14T00:06:44.207Z,2.22
2022-12-14T00:09:14.253Z,2.05
2022-12-14T00:11:41.189Z,2.20
2022-12-14T00:14:08.219Z,1.91
2022-12-14T00:16:35.387Z,1.94
2022-12-14T00:19:02.940Z,1.26
2022-12-14T00:21:29.917Z,1.74
2022-12-14T00:23:59.028Z,1.74
2022-12-14T00:26:28.773Z,1.82
2022-12-14T00:28:58.406Z,1.81
2022-12-14T00:31:33.741Z,1.67
2022-12-14T00:34:01.562Z,1.59
2022-12-14T00:36:31.765Z,1.62
2022-12-14T00:38:59.114Z,1.69
2022-12-14T00:41:26.124Z,1.61
2022-12-14T00:43:53.058Z,1.60
2022-12-14T00:46:20.687Z,1.80
2022-12-14T00:48:47.688Z,1.96
2022-12-14T00:51:15.167Z,2.00
2022-12-14T00:53:46.501Z,1.82
2022-12-14T00:56:13.453Z,1.62
2022-12-14T00:58:44.326Z,2.09
2022-12-14T01:01:13.772Z,1.99
2022-12-14T01:03:41.797Z,1.89
2022-12-14T01:06:21.067Z,2.05
2022-12-14T01:08:48.897Z,1.82
2022-12-14T01:11:15.865Z,2.00
2022-12-14T01:13:43.044Z,2.25
2022-12-14T01:16:13.426Z,2.00
2022-12-14T01:18:42.229Z,2.01
2022-12-14T01:21:13.912Z,2.20
2022-12-14T01:23:41.737Z,2.12
2022-12-14T01:26:08.987Z,2.29
2022-12-14T01:28:36.681Z,2.26
2022-12-14T01:31:12.498Z,2.41
2022-12-14T01:33:44.883Z,2.20
2022-12-14T01:36:17.652Z,2.40
2022-12-14T01:38:45.028Z,2.17
2022-12-14T01:41:30.168Z,2.43
2022-12-14T01:44:01.366Z,2.44
2022-12-14T01:46:53.093Z,2.42
2022-12-14T01:49:38.212Z,2.38
2022-12-14T01:52:26.841Z,2.02
2022-12-14T01:55:03.248Z,1.97
2022-12-14T01:57:42.513Z,2.09
2022-12-14T02:00:17.794Z,2.16
2022-12-14T02:02:56.169Z,2.02
2022-12-14T02:05:24.792Z,2.33
2022-12-14T02:07:54.761Z,1.97
2022-12-14T02:10:24.993Z,2.33
2022-12-14T02:12:59.440Z,2.22
2022-12-14T02:15:26.392Z,2.35
2022-12-14T02:17:53.368Z,2.40
2022-12-14T02:20:23.219Z,2.02
2022-12-14T02:23:12.149Z,2.39
2022-12-14T02:25:42.911Z,2.42
2022-12-14T02:28:21.712Z,2.42
2022-12-14T02:31:15.419Z,2.12
2022-12-14T02:33:57.639Z,2.32
2022-12-14T02:36:46.962Z,2.48
2022-12-14T02:39:40.045Z,2.42
2022-12-14T02:42:17.760Z,2.37
2022-12-14T02:45:16.518Z,2.04
2022-12-14T02:47:54.703Z,2.45
2022-12-14T02:50:37.772Z,2.43
2022-12-14T02:53:18.242Z,2.53
2022-12-14T02:55:54.067Z,2.47
2022-12-14T02:58:29.403Z,2.02
2022-12-14T03:00:57.160Z,2.22
2022-12-14T03:03:24.339Z,2.31
2022-12-14T03:06:04.417Z,2.06
2022-12-14T03:08:34.948Z,2.01
2022-12-14T03:11:05.444Z,2.19
2022-12-14T03:13:39.415Z,2.06
2022-12-14T03:16:13.456Z,2.37
2022-12-14T03:18:50.181Z,2.22
2022-12-14T03:21:20.526Z,2.28
2022-12-14T03:23:50.743Z,2.37
2022-12-14T03:26:34.833Z,2.17
2022-12-14T03:29:10.344Z,2.04
2022-12-14T03:31:49.218Z,2.29
2022-12-14T03:34:21.471Z,2.22
2022-12-14T03:37:24.169Z,2.41
2022-12-14T03:39:51.103Z,2.01
2022-12-14T03:42:26.087Z,2.27
2022-12-14T03:45:14.235Z,2.52
2022-12-14T03:48:11.019Z,2.55
2022-12-14T03:50:37.848Z,2.56
2022-12-14T03:53:43.369Z,2.48
2022-12-14T03:56:24.199Z,2.52
2022-12-14T03:59:14.959Z,2.63
2022-12-14T04:01:46.745Z,2.39
2022-12-14T04:04:22.770Z,2.65
2022-12-14T04:07:11.119Z,2.47
2022-12-14T04:09:46.838Z,2.04
2022-12-14T04:12:44.247Z,2.37
2022-12-14T04:15:48.235Z,2.60
2022-12-14T04:18:44.076Z,2.44
2022-12-14T04:21:28.893Z,2.58
2022-12-14T04:24:19.953Z,2.61
2022-12-14T04:26:54.695Z,2.64
2022-12-14T04:29:47.207Z,2.64
2022-12-14T04:32:21.561Z,2.39
2022-12-14T04:34:54.708Z,2.51
2022-12-14T04:37:25.085Z,2.30
2022-12-14T04:40:05.519Z,2.61
2022-12-14T04:42:36.485Z,2.62
2022-12-14T04:45:18.435Z,2.71
2022-12-14T04:48:16.093Z,2.53
2022-12-14T04:50:48.588Z,2.56
2022-12-14T04:53:29.121Z,2.24
2022-12-14T04:56:11.433Z,2.79
2022-12-14T04:58:40.341Z,2.62
2022-12-14T05:01:34.425Z,2.74
2022-12-14T05:04:56.657Z,2.49
2022-12-14T05:07:55.820Z,2.53
2022-12-14T05:10:37.555Z,2.64
2022-12-14T05:13:31.052Z,2.68
2022-12-14T05:15:59.349Z,2.54
2022-12-14T05:18:26.860Z,2.50
2022-12-14T05:20:53.743Z,2.92
2022-12-14T05:23:20.655Z,2.86
2022-12-14T05:25:49.211Z,2.54
2022-12-14T05:28:16.503Z,2.90
2022-12-14T05:30:49.131Z,2.75
2022-12-14T05:33:20.080Z,2.90
2022-12-14T05:35:47.088Z,2.65
2022-12-14T05:38:14.004Z,3.08
2022-12-14T05:40:40.882Z,3.07
2022-12-14T05:43:11.150Z,2.83
2022-12-14T05:45:38.122Z,3.08
2022-12-14T05:48:05.428Z,3.01
2022-12-14T05:50:32.319Z,2.70
2022-12-14T05:52:59.278Z,2.93
2022-12-14T05:55:26.146Z,2.97
2022-12-14T05:57:53.123Z,2.80
2022-12-14T06:00:20.734Z,2.88
2022-12-14T06:02:47.658Z,3.04
2022-12-14T06:05:14.648Z,3.01
2022-12-14T06:07:41.536Z,3.04
2022-12-14T06:10:08.836Z,2.82
2022-12-14T06:12:35.724Z,2.78
2022-12-14T06:15:02.673Z,3.11
2022-12-14T06:17:29.585Z,2.97
2022-12-14T06:19:56.502Z,2.97
2022-12-14T06:22:23.361Z,3.11
2022-12-14T06:24:50.382Z,3.20
2022-12-14T06:27:17.322Z,3.08
2022-12-14T06:29:44.361Z,3.27
2022-12-14T06:32:11.289Z,3.17
2022-12-14T06:34:40.628Z,2.88
2022-12-14T06:37:08.457Z,3.10
2022-12-14T06:39:38.968Z,2.99
2022-12-14T06:42:06.662Z,2.70
2022-12-14T06:44:33.596Z,3.12
2022-12-14T06:47:00.826Z,3.27
2022-12-14T06:49:27.736Z,3.26
2022-12-14T06:51:54.677Z,3.33
2022-12-14T06:54:21.704Z,3.40
2022-12-14T06:56:48.910Z,3.23
2022-12-14T06:59:17.209Z,3.29
2022-12-14T07:01:44.561Z,3.25
2022-12-14T07:04:11.947Z,3.63
2022-12-14T07:06:40.819Z,3.65
2022-12-14T07:09:12.280Z,3.68
2022-12-14T07:11:39.295Z,3.30
2022-12-14T07:14:07.370Z,3.53
2022-12-14T07:16:37.125Z,3.74
2022-12-14T07:19:05.190Z,3.50
2022-12-14T07:21:33.403Z,3.42
2022-12-14T07:24:02.145Z,3.57
2022-12-14T07:26:29.380Z,3.73
2022-12-14T07:28:58.467Z,3.83
2022-12-14T07:31:27.574Z,3.93
2022-12-14T07:33:56.442Z,4.06
2022-12-14T07:36:24.748Z,3.87
2022-12-14T07:38:52.597Z,3.87
2022-12-14T07:41:25.699Z,4.20
2022-12-14T07:43:55.190Z,3.96
2022-12-14T07:46:24.594Z,3.88
2022-12-14T07:48:53.967Z,4.18
2022-12-14T07:51:23.354Z,4.30
2022-12-14T07:53:51.633Z,4.06
2022-12-14T07:56:25.059Z,4.29
2022-12-14T07:58:52.689Z,4.24
2022-12-14T08:01:22.668Z,4.11
2022-12-14T08:03:52.465Z,4.43
2022-12-14T08:06:21.249Z,4.27
2022-12-14T08:08:49.151Z,4.20
2022-12-14T08:11:16.685Z,4.55
2022-12-14T08:13:43.935Z,4.63
2022-12-14T08:16:16.997Z,4.59
2022-12-14T08:18:44.767Z,4.41
2022-12-14T08:21:13.203Z,4.71
2022-12-14T08:23:41.693Z,4.59
2022-12-14T08:26:09.102Z,4.83
2022-12-14T08:28:36.953Z,4.88
2022-12-14T08:31:14.058Z,4.79
2022-12-14T08:33:42.210Z,4.84
2022-12-14T08:36:18.382Z,4.75
2022-12-14T08:38:45.619Z,5.02
2022-12-14T08:41:15.036Z,4.99
2022-12-14T08:43:54.708Z,4.78
2022-12-14T08:46:22.366Z,4.96
2022-12-14T08:48:52.397Z,4.97
2022-12-14T08:51:20.513Z,5.06
2022-12-14T08:53:48.035Z,4.82
2022-12-14T08:56:18.041Z,5.20
2022-12-14T08:58:45.253Z,5.01
2022-12-14T09:01:17.873Z,5.04
2022-12-14T09:03:46.500Z,5.03
2022-12-14T09:06:19.480Z,5.17
2022-12-14T09:08:47.243Z,4.94
2022-12-14T09:11:19.351Z,5.25
2022-12-14T09:13:46.871Z,5.15
2022-12-14T09:16:19.726Z,5.23
2022-12-14T09:18:48.535Z,5.00
2022-12-14T09:21:16.376Z,5.15
2022-12-14T09:23:43.722Z,5.10
2022-12-14T09:26:15.073Z,5.33
2022-12-14T09:28:46.452Z,5.30
2022-12-14T09:31:16.103Z,5.47
2022-12-14T09:33:43.173Z,4.94
2022-12-14T09:36:24.844Z,5.58
2022-12-14T09:38:52.679Z,5.55
2022-12-14T09:41:22.914Z,5.47
2022-12-14T09:44:38.342Z,5.56
2022-12-14T09:47:19.491Z,5.49
2022-12-14T09:50:01.462Z,5.50
2022-12-14T09:52:53.662Z,5.35
2022-12-14T09:55:47.287Z,5.29
2022-12-14T09:58:28.932Z,5.48
2022-12-14T10:01:30.888Z,5.66
2022-12-14T10:04:13.011Z,5.76
2022-12-14T10:07:17.186Z,5.82
2022-12-14T10:09:54.872Z,5.88
2022-12-14T10:12:49.672Z,5.94
2022-12-14T10:15:22.357Z,5.90
2022-12-14T10:18:01.385Z,6.04
2022-12-14T10:20:37.581Z,6.07
2022-12-14T10:23:18.190Z,6.09
2022-12-14T10:25:54.917Z,5.99
2022-12-14T10:28:24.876Z,6.26
2022-12-14T10:30:57.817Z,6.17
2022-12-14T10:33:29.690Z,6.30
2022-12-14T10:36:27.110Z,6.28
2022-12-14T10:39:18.453Z,6.07
2022-12-14T10:41:59.101Z,6.05
2022-12-14T10:44:40.294Z,5.87
2022-12-14T10:47:16.190Z,6.54
2022-12-14T10:50:07.122Z,6.61
2022-12-14T10:52:41.961Z,6.56
2022-12-14T10:55:14.997Z,6.49
2022-12-14T10:57:42.177Z,6.69
2022-12-14T11:00:22.616Z,6.64
2022-12-14T11:02:58.101Z,6.77
2022-12-14T11:05:34.195Z,6.87
2022-12-14T11:08:04.139Z,6.81
2022-12-14T11:10:36.340Z,6.67
2022-12-14T11:13:21.528Z,6.79
2022-12-14T11:15:52.631Z,7.08
2022-12-14T11:18:22.485Z,7.01
2022-12-14T11:20:56.515Z,6.94
2022-12-14T11:23:27.338Z,6.58
2022-12-14T11:25:59.449Z,6.56
2022-12-14T11:28:38.255Z,6.90
2022-12-14T11:31:10.408Z,6.87
2022-12-14T11:33:50.201Z,7.06
2022-12-14T11:36:29.641Z,7.20
2022-12-14T11:39:19.864Z,7.16
2022-12-14T11:41:59.591Z,6.86
2022-12-14T11:44:28.704Z,6.92
2022-12-14T11:46:58.695Z,7.45
2022-12-14T11:49:29.619Z,7.59
2022-12-14T11:51:56.553Z,7.63
2022-12-14T11:54:23.496Z,7.47
2022-12-14T11:56:56.514Z,7.66
2022-12-14T11:59:38.492Z,7.89
2022-12-14T12:02:35.886Z,7.98
2022-12-14T12:05:16.657Z,8.12
2022-12-14T12:07:49.402Z,8.23
2022-12-14T12:10:49.876Z,8.10
2022-12-14T12:13:32.130Z,8.40
2022-12-14T12:16:04.222Z,8.20
2022-12-14T12:18:46.649Z,8.13
2022-12-14T12:21:28.006Z,8.22
2022-12-14T12:24:07.292Z,8.14
2022-12-14T12:26:51.542Z,7.73
2022-12-14T12:29:35.175Z,8.07
2022-12-14T12:32:16.251Z,6.72
2022-12-14T12:34:43.214Z,8.11
2022-12-14T12:37:43.597Z,8.01
2022-12-14T12:40:19.566Z,7.79
2022-12-14T12:43:03.100Z,7.83
2022-12-14T12:45:30.265Z,8.28
2022-12-14T12:48:14.857Z,7.83
2022-12-14T12:50:50.074Z,8.01
2022-12-14T12:53:44.126Z,8.41
2022-12-14T12:56:15.083Z,7.87
2022-12-14T12:58:50.635Z,7.95
2022-12-14T13:01:30.025Z,7.12
2022-12-14T13:04:01.985Z,7.79
2022-12-14T13:06:40.813Z,7.33
2022-12-14T13:09:26.729Z,7.73
2022-12-14T13:11:53.913Z,7.28
2022-12-14T13:14:49.876Z,7.49
2022-12-14T13:17:37.510Z,7.49
2022-12-14T13:20:16.319Z,7.32
2022-12-14T13:22:44.039Z,7.14
2022-12-14T13:25:21.753Z,6.87
2022-12-14T13:28:26.274Z,7.34
2022-12-14T13:31:22.184Z,7.46
2022-12-14T13:34:24.037Z,7.26
2022-12-14T13:37:25.366Z,7.27
2022-12-14T13:40:17.789Z,7.24
2022-12-14T13:43:06.210Z,7.35
2022-12-14T13:45:40.072Z,7.25
2022-12-14T13:48:26.593Z,7.13
2022-12-14T13:51:19.148Z,7.41
2022-12-14T13:53:50.255Z,6.88
2022-12-14T13:56:31.077Z,6.94
2022-12-14T13:59:03.729Z,7.01
2022-12-14T14:01:46.161Z,7.26
2022-12-14T14:04:16.283Z,7.23
2022-12-14T14:06:45.056Z,7.12
2022-12-14T14:09:35.371Z,6.88
2022-12-14T14:12:21.743Z,6.99
2022-12-14T14:14:57.493Z,6.93
2022-12-14T14:17:36.241Z,6.58
2022-12-14T14:20:27.063Z,6.39
2022-12-14T14:23:21.726Z,6.53
2022-12-14T14:25:52.823Z,6.44
2022-12-14T14:28:23.198Z,6.40
2022-12-14T14:30:56.928Z,6.19
2022-12-14T14:33:47.792Z,6.42
2022-12-14T14:36:33.936Z,6.08
2022-12-14T14:39:02.934Z,6.17
2022-12-14T14:41:42.779Z,6.35
2022-12-14T14:44:26.193Z,6.09
2022-12-14T14:46:53.525Z,5.96
2022-12-14T14:49:27.902Z,5.76
2022-12-14T14:51:55.036Z,5.57
2022-12-14T14:55:15.935Z,6.21
2022-12-14T14:57:34.133Z,6.22
2022-12-14T15:00:02.756Z,5.44
2022-12-14T15:02:32.764Z,5.67
2022-12-14T15:05:17.989Z,5.55
2022-12-14T15:07:48.881Z,6.05
2022-12-14T15:10:30.983Z,6.14
2022-12-14T15:13:02.950Z,5.97
2022-12-14T15:15:44.689Z,6.03
2022-12-14T15:18:25.015Z,6.34
2022-12-14T15:21:03.805Z,6.37
2022-12-14T15:23:40.315Z,6.33
2022-12-14T15:26:24.854Z,6.50
2022-12-14T15:28:54.851Z,6.37
2022-12-14T15:31:34.140Z,6.39
2022-12-14T15:34:02.702Z,6.14
2022-12-14T15:36:33.930Z,6.37
2022-12-14T15:39:01.012Z,6.20
2022-12-14T15:41:30.862Z,6.47
2022-12-14T15:44:00.224Z,6.58
2022-12-14T15:46:33.563Z,6.31
2022-12-14T15:49:01.804Z,6.65
2022-12-14T15:51:33.180Z,6.52
2022-12-14T15:54:03.767Z,6.39
2022-12-14T15:56:44.019Z,6.37
2022-12-14T15:59:36.030Z,6.54
2022-12-14T16:02:21.138Z,6.71
2022-12-14T16:04:48.298Z,6.74
2022-12-14T16:07:26.663Z,6.42
2022-12-14T16:10:18.794Z,6.57
2022-12-14T16:12:49.188Z,6.43
2022-12-14T16:15:28.055Z,6.77
2022-12-14T16:18:02.257Z,6.80
2022-12-14T16:20:38.103Z,6.58
2022-12-14T16:23:22.744Z,6.71
2022-12-14T16:26:11.392Z,6.52
2022-12-14T16:28:38.685Z,6.67
2022-12-14T16:31:17.932Z,6.42
2022-12-14T16:33:46.106Z,6.42
2022-12-14T16:36:20.589Z,6.70
2022-12-14T16:39:15.483Z,6.60
2022-12-14T16:42:00.779Z,6.64
2022-12-14T16:44:31.519Z,6.70
2022-12-14T16:47:01.494Z,6.48
2022-12-14T16:49:34.399Z,6.42
2022-12-14T16:52:14.358Z,6.54
2022-12-14T16:54:41.403Z,6.58
2022-12-14T16:57:20.284Z,6.63
2022-12-14T16:59:56.333Z,6.41
2022-12-14T17:02:39.289Z,6.63
2022-12-14T17:05:16.780Z,6.28
2022-12-14T17:07:44.476Z,6.29
2022-12-14T17:10:16.928Z,6.51
2022-12-14T17:12:45.278Z,6.20
2022-12-14T17:15:24.927Z,6.27
2022-12-14T17:17:53.968Z,6.44
2022-12-14T17:20:29.336Z,6.49
2022-12-14T17:22:58.854Z,6.50
2022-12-14T17:25:30.648Z,6.60
2022-12-14T17:27:58.549Z,6.35
2022-12-14T17:30:31.249Z,6.59
2022-12-14T17:32:59.592Z,5.50
2022-12-14T17:35:30.174Z,6.68
2022-12-14T17:37:57.276Z,5.93
2022-12-14T17:40:28.631Z,6.14
2022-12-14T17:42:58.764Z,6.35
2022-12-14T17:45:30.149Z,6.25
2022-12-14T17:47:57.345Z,6.42
2022-12-14T17:50:27.658Z,6.46
2022-12-14T17:52:54.739Z,6.52
2022-12-14T17:55:25.307Z,6.54
2022-12-14T17:57:55.468Z,6.57
2022-12-14T18:00:47.151Z,6.58
2022-12-14T18:03:16.388Z,6.42
2022-12-14T18:05:51.594Z,6.32
2022-12-14T18:08:24.088Z,6.25
2022-12-14T18:10:54.623Z,6.34
2022-12-14T18:13:21.875Z,6.52
2022-12-14T18:15:51.755Z,6.58
2022-12-14T18:18:25.175Z,6.62
2022-12-14T18:20:55.566Z,6.61
2022-12-14T18:23:48.042Z,6.64
2022-12-14T18:26:21.183Z,6.67
2022-12-14T18:28:50.241Z,6.38
2022-12-14T18:31:27.092Z,6.66
2022-12-14T18:33:54.738Z,6.48
2022-12-14T18:36:22.716Z,6.16
2022-12-14T18:38:52.204Z,6.59
2022-12-14T18:41:23.013Z,6.69
2022-12-14T18:43:50.116Z,6.28
2022-12-14T18:46:17.361Z,6.60
2022-12-14T18:48:45.335Z,6.65
2022-12-14T18:51:23.831Z,6.68
2022-12-14T18:53:52.043Z,6.33
2022-12-14T18:56:22.279Z,6.40
2022-12-14T18:58:52.548Z,6.21
2022-12-14T19:01:22.795Z,6.54
2022-12-14T19:03:50.755Z,6.39
2022-12-14T19:06:43.510Z,6.28
2022-12-14T19:09:08.025Z,6.40
2022-12-14T19:11:42.027Z,6.14
2022-12-14T19:14:10.800Z,6.62
2022-12-14T19:16:37.978Z,6.40
2022-12-14T19:19:05.170Z,6.51
2022-12-14T19:21:32.091Z,6.22
2022-12-14T19:23:59.960Z,6.24
2022-12-14T19:26:28.663Z,6.61
2022-12-14T19:28:56.041Z,6.34
2022-12-14T19:31:23.154Z,6.35
2022-12-14T19:33:50.207Z,6.47
2022-12-14T19:36:17.203Z,6.55
2022-12-14T19:38:45.059Z,6.05
2022-12-14T19:41:17.925Z,6.60
2022-12-14T19:43:44.998Z,6.41
2022-12-14T19:46:14.113Z,6.70
2022-12-14T19:48:42.369Z,6.34
2022-12-14T19:51:12.114Z,6.61
2022-12-14T19:53:40.893Z,6.59
2022-12-14T19:56:08.426Z,6.71
2022-12-14T19:58:36.108Z,6.35
2022-12-14T20:01:08.816Z,6.53
2022-12-14T20:03:36.763Z,6.64
2022-12-14T20:06:05.776Z,6.29
2022-12-14T20:08:34.051Z,6.37
2022-12-14T20:11:06.749Z,6.25
2022-12-14T20:13:34.185Z,6.29
2022-12-14T20:16:02.392Z,6.46
2022-12-14T20:18:31.666Z,6.45
2022-12-14T20:21:03.672Z,6.31
2022-12-14T20:23:33.353Z,6.00
2022-12-14T20:26:01.751Z,5.87
2022-12-14T20:28:28.952Z,6.25
2022-12-14T20:30:56.163Z,5.81
2022-12-14T20:33:29.648Z,6.29
2022-12-14T20:35:57.066Z,6.12
2022-12-14T20:38:24.028Z,6.01
2022-12-14T20:40:51.021Z,5.91
2022-12-14T20:43:18.017Z,5.79
2022-12-14T20:45:45.242Z,5.61
2022-12-14T20:48:13.403Z,5.62
2022-12-14T20:50:43.128Z,5.93
2022-12-14T20:53:10.088Z,5.65
2022-12-14T20:55:37.067Z,5.49
2022-12-14T20:58:04.049Z,5.56
2022-12-14T21:00:31.398Z,5.68
2022-12-14T21:02:58.472Z,5.70
2022-12-14T21:05:25.829Z,5.47
2022-12-14T21:07:52.863Z,5.13
2022-12-14T21:10:20.053Z,5.01
2022-12-14T21:12:49.778Z,5.49
2022-12-14T21:15:16.767Z,5.28
2022-12-14T21:17:43.851Z,5.31
2022-12-14T21:20:11.573Z,5.28
2022-12-14T21:22:38.967Z,5.08
2022-12-14T21:25:07.514Z,5.42
2022-12-14T21:27:38.504Z,5.38
2022-12-14T21:30:11.227Z,5.07
2022-12-14T21:32:38.918Z,5.11
2022-12-14T21:35:06.626Z,5.19
2022-12-14T21:37:33.494Z,5.29
2022-12-14T21:40:03.270Z,5.18
2022-12-14T21:42:30.197Z,5.07
2022-12-14T21:44:57.789Z,5.27
2022-12-14T21:47:30.056Z,5.36
2022-12-14T21:49:57.298Z,5.60
2022-12-14T21:52:27.124Z,5.47
2022-12-14T21:54:54.230Z,5.56
2022-12-14T21:57:42.714Z,5.60
2022-12-14T22:00:11.076Z,5.60
2022-12-14T22:02:42.117Z,4.88
2022-12-14T22:05:10.111Z,5.70
2022-12-14T22:07:37.005Z,5.48
2022-12-14T22:10:04.793Z,5.60
2022-12-14T22:12:32.040Z,5.53
2022-12-14T22:14:58.982Z,5.17
2022-12-14T22:17:25.951Z,5.73
2022-12-14T22:19:55.379Z,5.74
2022-12-14T22:22:22.855Z,5.65
2022-12-14T22:24:51.264Z,5.20
2022-12-14T22:27:19.047Z,5.68
2022-12-14T22:29:46.086Z,5.67
2022-12-14T22:32:13.334Z,5.87
2022-12-14T22:34:40.501Z,5.42
2022-12-14T22:37:07.560Z,5.65
2022-12-14T22:39:34.514Z,5.59
2022-12-14T22:42:01.461Z,5.87
2022-12-14T22:44:28.419Z,5.87
2022-12-14T22:46:55.365Z,5.75
2022-12-14T22:49:22.265Z,5.43
2022-12-14T22:51:50.638Z,5.09
2022-12-14T22:54:22.753Z,4.56
2022-12-14T22:57:02.472Z,5.18
2022-12-14T22:59:37.049Z,5.48
2022-12-14T23:02:05.119Z,5.38
2022-12-14T23:04:32.200Z,5.05
2022-12-14T23:06:59.233Z,5.17
2022-12-14T23:09:44.783Z,5.08
2022-12-14T23:12:30.459Z,4.79
2022-12-14T23:15:15.905Z,5.08
2022-12-14T23:18:01.637Z,5.24
2022-12-14T23:20:47.237Z,5.10
2022-12-14T23:23:33.205Z,5.36
2022-12-14T23:26:23.069Z,4.76
2022-12-14T23:29:08.740Z,5.27
2022-12-14T23:31:54.443Z,5.36
2022-12-14T23:34:39.969Z,5.68
2022-12-14T23:37:25.652Z,5.85
2022-12-14T23:40:11.261Z,5.47
2022-12-14T23:42:56.943Z,5.57
2022-12-14T23:45:42.669Z,5.74
2022-12-14T23:48:27.968Z,6.16
2022-12-14T23:51:13.663Z,6.18
2022-12-14T23:53:59.305Z,6.20
2022-12-14T23:56:44.961Z,5.79
2022-12-14T23:59:32.684Z,5.99
